Time;durP1;ratioP1;P1;durP2;ratioP2;P2;SDS_P1;SDS_P2;PMS_P1;PMS_P2;Temp;Humidity;BMP_temperature;BMP_pressure;BME280_temperature;BME280_humidity;BME280_pressure;Samples;Min_cycle;Max_cycle;Signal;HPM_P1;HPM_P2
2022/07/14 00:00:51;;;;;;;1.57;0.50;;;;;;;23.84;36.00;99202.94;6156610;23;20151;-87
2022/07/14 00:03:16;;;;;;;2.17;0.83;;;;;;;23.81;35.83;99200.59;6156861;23;20206;-88
2022/07/14 00:05:42;;;;;;;1.50;0.50;;;;;;;23.63;36.59;99200.69;6130506;23;20155;-87
2022/07/14 00:08:08;;;;;;;2.57;0.50;;;;;;;23.56;36.63;99205.00;6156559;23;20570;-87
2022/07/14 00:10:33;;;;;;;0.93;0.53;;;;;;;23.70;36.45;99204.41;6130344;23;20193;-88
2022/07/14 00:12:59;;;;;;;1.53;0.87;;;;;;;23.54;36.54;99209.69;6156152;23;20163;-87
2022/07/14 00:15:25;;;;;;;1.27;0.60;;;;;;;23.55;36.84;99210.53;6130348;23;20475;-86
2022/07/14 00:17:50;;;;;;;3.50;0.53;;;;;;;23.47;37.05;99205.97;6130657;23;20158;-87
2022/07/14 00:20:16;;;;;;;0.60;0.40;;;;;;;23.52;36.40;99200.97;6156153;23;20180;-87
2022/07/14 00:22:42;;;;;;;0.87;0.50;;;;;;;23.36;37.12;99210.72;6156053;23;20641;-86
2022/07/14 00:25:08;;;;;;;1.10;0.53;;;;;;;23.45;36.99;99210.66;6156059;23;20151;-86
2022/07/14 00:27:36;;;;;;;5.73;0.80;;;;;;;23.37;37.41;99205.25;6156006;23;20155;-86
2022/07/14 00:30:03;;;;;;;2.13;0.53;;;;;;;23.27;37.40;99204.47;6156347;23;20147;-87
2022/07/14 00:32:29;;;;;;;3.03;0.40;;;;;;;23.29;37.51;99207.03;6155938;23;20175;-87
2022/07/14 00:34:57;;;;;;;0.77;0.37;;;;;;;23.35;37.24;99199.19;6156004;23;20147;-86
2022/07/14 00:37:22;;;;;;;0.90;0.43;;;;;;;23.27;37.69;99202.66;6130275;23;20159;-88
2022/07/14 00:39:57;;;;;;;1.13;0.40;;;;;;;23.28;37.49;99208.84;6156314;23;20645;-86
2022/07/14 00:42:37;;;;;;;1.60;0.50;;;;;;;23.19;37.54;99215.16;6130133;23;20149;-86
2022/07/14 00:45:06;;;;;;;0.73;0.43;;;;;;;23.23;37.74;99216.50;6130999;23;20147;-87
2022/07/14 00:47:32;;;;;;;0.57;0.40;;;;;;;23.16;38.15;99215.47;6155787;23;20171;-86
2022/07/14 00:49:58;;;;;;;0.93;0.40;;;;;;;23.22;38.01;99217.50;6130540;23;20585;-87
2022/07/14 00:52:25;;;;;;;0.60;0.40;;;;;;;23.41;37.43;99217.31;6130400;23;20637;-87
2022/07/14 00:54:52;;;;;;;0.93;0.40;;;;;;;23.43;37.70;99223.34;6155858;23;20210;-87
2022/07/14 00:57:18;;;;;;;1.67;0.40;;;;;;;23.48;37.19;99217.53;6130128;23;20155;-87
2022/07/14 00:59:44;;;;;;;1.77;0.67;;;;;;;23.56;36.92;99217.53;6155836;23;20289;-86
2022/07/14 01:02:10;;;;;;;1.13;0.50;;;;;;;23.36;37.27;99216.91;6155837;23;20143;-88
2022/07/14 01:04:36;;;;;;;3.37;0.50;;;;;;;23.41;37.55;99217.31;6155844;23;20158;-87
2022/07/14 01:07:02;;;;;;;1.40;0.40;;;;;;;23.58;36.75;99220.91;6155765;23;20531;-86
2022/07/14 01:09:28;;;;;;;0.63;0.33;;;;;;;23.58;36.85;99219.06;6129967;23;20550;-87
2022/07/14 01:11:53;;;;;;;1.27;0.40;;;;;;;23.51;37.28;99222.53;6156355;23;20182;-88
2022/07/14 01:14:19;;;;;;;2.97;0.63;;;;;;;23.28;37.50;99222.22;6155788;23;20162;-87
2022/07/14 01:16:44;;;;;;;0.87;0.50;;;;;;;23.27;37.46;99224.06;6156118;23;20151;-87
2022/07/14 01:19:10;;;;;;;2.87;0.90;;;;;;;23.34;37.41;99220.75;6130007;23;20151;-87
2022/07/14 01:21:35;;;;;;;2.50;0.60;;;;;;;23.46;37.17;99222.19;6155710;23;20223;-87
2022/07/14 01:24:00;;;;;;;0.80;0.40;;;;;;;23.55;36.69;99227.41;6155730;23;20151;-88
2022/07/14 01:26:26;;;;;;;1.00;0.40;;;;;;;23.41;36.98;99222.66;6129942;23;20155;-87
2022/07/14 01:28:51;;;;;;;2.33;0.80;;;;;;;23.39;36.90;99221.16;6130027;23;20151;-87
2022/07/14 01:31:17;;;;;;;0.83;0.40;;;;;;;23.32;37.58;99225.44;6129890;23;20674;-87
2022/07/14 01:33:42;;;;;;;0.33;0.30;;;;;;;23.18;37.50;99224.19;6155678;23;20174;-87
2022/07/14 01:36:08;;;;;;;0.93;0.30;;;;;;;23.25;37.98;99230.56;6129950;23;20221;-88
2022/07/14 01:38:33;;;;;;;5.83;0.47;;;;;;;23.40;36.95;99234.34;6155665;23;20158;-88
2022/07/14 01:40:59;;;;;;;0.80;0.40;;;;;;;23.49;37.19;99230.72;6155592;23;20571;-87
2022/07/14 01:43:24;;;;;;;2.93;0.93;;;;;;;23.61;36.71;99231.28;6155614;23;20579;-88
2022/07/14 01:45:50;;;;;;;2.03;0.47;;;;;;;23.59;36.93;99233.28;6155617;23;20151;-88
2022/07/14 01:48:15;;;;;;;1.40;0.50;;;;;;;23.55;37.17;99231.94;6156243;23;20155;-88
2022/07/14 01:50:41;;;;;;;1.83;0.50;;;;;;;23.44;37.47;99235.72;6155848;23;20254;-87
2022/07/14 01:53:07;;;;;;;0.53;0.33;;;;;;;23.37;37.52;99234.69;6156580;23;20158;-87
2022/07/14 01:55:32;;;;;;;1.80;0.67;;;;;;;23.37;37.56;99234.69;6129797;23;20170;-87
2022/07/14 01:57:58;;;;;;;1.07;0.50;;;;;;;23.24;37.83;99234.25;6156927;23;20478;-87
2022/07/14 02:00:24;;;;;;;0.83;0.40;;;;;;;23.12;38.49;99240.84;6157416;23;20151;-87
2022/07/14 02:02:49;;;;;;;0.50;0.30;;;;;;;23.18;38.08;99234.88;6131642;23;20514;-87
2022/07/14 02:05:15;;;;;;;1.00;0.40;;;;;;;23.17;38.30;99235.84;6131635;23;20147;-87
2022/07/14 02:07:40;;;;;;;2.70;0.40;;;;;;;23.12;37.94;99243.50;6157373;23;20147;-87
2022/07/14 02:12:50;;;;;;;3.47;0.70;;;;;;;22.91;38.81;99243.88;6157366;23;20155;-87
2022/07/14 02:15:16;;;;;;;0.47;0.30;;;;;;;22.82;38.78;99243.97;6157602;23;20151;-87
2022/07/14 02:17:41;;;;;;;2.50;0.60;;;;;;;22.83;38.75;99240.28;6157290;23;20504;-87
2022/07/14 02:20:09;;;;;;;0.60;0.23;;;;;;;22.81;38.92;99239.63;6157576;23;20151;-88
2022/07/14 02:22:34;;;;;;;0.93;0.53;;;;;;;22.78;39.16;99237.25;6157522;23;20147;-88
2022/07/14 02:25:00;;;;;;;2.00;0.50;;;;;;;22.76;39.70;99233.91;6157158;23;20162;-88
2022/07/14 02:27:25;;;;;;;0.83;0.37;;;;;;;22.69;39.24;99238.19;6157547;23;20186;-87
2022/07/14 02:29:51;;;;;;;0.70;0.30;;;;;;;22.69;39.28;99243.53;6157095;23;20148;-88
2022/07/14 02:32:17;;;;;;;2.63;0.40;;;;;;;22.66;39.46;99246.50;6131641;23;20179;-87
2022/07/14 02:34:42;;;;;;;1.10;0.40;;;;;;;22.53;39.45;99250.41;6157022;23;20567;-87
2022/07/14 02:37:08;;;;;;;0.50;0.30;;;;;;;22.60;39.64;99246.09;6157395;23;20158;-87
2022/07/14 02:39:33;;;;;;;1.07;0.43;;;;;;;22.67;39.42;99250.88;6157043;23;20544;-87
2022/07/14 02:41:59;;;;;;;3.53;0.67;;;;;;;22.68;39.46;99253.38;6157006;23;20184;-87
2022/07/14 02:44:24;;;;;;;1.90;0.70;;;;;;;22.74;39.17;99252.78;6156879;23;20163;-86
2022/07/14 02:46:49;;;;;;;1.07;0.50;;;;;;;22.69;39.23;99252.41;6157263;23;20226;-87
2022/07/14 02:49:15;;;;;;;1.17;0.60;;;;;;;22.61;39.41;99247.75;6156964;23;20147;-87
2022/07/14 02:51:40;;;;;;;1.10;0.43;;;;;;;22.51;39.70;99247.00;6156853;23;20623;-87
2022/07/14 02:54:06;;;;;;;5.97;0.73;;;;;;;22.48;39.66;99260.66;6156908;23;20226;-87
2022/07/14 02:56:31;;;;;;;1.00;0.60;;;;;;;22.50;40.04;99258.72;6157230;23;20585;-88
2022/07/14 02:58:57;;;;;;;0.73;0.40;;;;;;;22.50;39.85;99257.88;6157180;23;20151;-87
2022/07/14 03:01:22;;;;;;;1.43;0.53;;;;;;;22.40;39.89;99259.78;6157132;23;20143;-88
2022/07/14 03:03:48;;;;;;;1.07;0.57;;;;;;;22.38;40.42;99257.25;6157122;23;20147;-87
2022/07/14 03:06:18;;;;;;;0.73;0.40;;;;;;;22.48;39.77;99257.19;6156747;23;20666;-87
2022/07/14 03:08:44;;;;;;;0.70;0.40;;;;;;;22.56;40.22;99263.41;6156599;23;20140;-87
2022/07/14 03:11:10;;;;;;;1.73;0.77;;;;;;;22.56;39.68;99266.09;6156553;23;20513;-86
2022/07/14 03:13:36;;;;;;;1.20;0.60;;;;;;;22.52;40.23;99266.56;6157043;23;20158;-87
2022/07/14 03:16:03;;;;;;;3.77;1.03;;;;;;;22.49;39.94;99270.38;6157016;23;20505;-88
2022/07/14 03:18:29;;;;;;;0.97;0.47;;;;;;;22.37;40.30;99271.59;6156659;23;20147;-87
2022/07/14 03:20:55;;;;;;;0.80;0.50;;;;;;;22.34;40.69;99266.56;6156667;23;20144;-87
2022/07/14 03:23:21;;;;;;;0.90;0.47;;;;;;;22.30;40.70;99269.69;6156964;23;20155;-87
2022/07/14 03:25:47;;;;;;;2.57;0.80;;;;;;;22.30;40.41;99277.72;6156916;23;20266;-87
2022/07/14 03:28:13;;;;;;;1.13;0.63;;;;;;;22.45;40.31;99268.16;6156616;23;20175;-88
2022/07/14 03:30:39;;;;;;;1.17;0.70;;;;;;;22.41;40.40;99269.44;6156446;23;20274;-87
2022/07/14 03:33:05;;;;;;;2.67;0.50;;;;;;;22.46;39.89;99264.50;6156555;23;20182;-87
2022/07/14 03:35:31;;;;;;;3.47;1.53;;;;;;;22.37;40.73;99271.59;6156454;23;20534;-88
2022/07/14 03:37:56;;;;;;;1.57;0.60;;;;;;;22.46;40.59;99272.50;6157165;23;20147;-87
2022/07/14 03:40:22;;;;;;;1.30;0.60;;;;;;;22.43;40.52;99262.97;6156436;23;20486;-87
2022/07/14 03:42:47;;;;;;;1.70;0.77;;;;;;;22.54;40.05;99269.91;6156255;23;20205;-87
2022/07/14 03:45:12;;;;;;;4.30;0.90;;;;;;;22.59;40.45;99271.13;6156749;23;20490;-87
2022/07/14 03:47:38;;;;;;;1.30;0.70;;;;;;;22.65;39.95;99269.72;6156370;23;20147;-88
2022/07/14 03:50:04;;;;;;;1.10;0.50;;;;;;;22.68;40.01;99269.41;6156618;23;20147;-87
2022/07/14 03:52:29;;;;;;;2.23;0.60;;;;;;;22.78;40.30;99272.84;6130462;23;20182;-87
2022/07/14 03:54:55;;;;;;;0.80;0.53;;;;;;;22.72;40.31;99270.78;6156144;23;20163;-88
2022/07/14 03:57:21;;;;;;;1.03;0.60;;;;;;;22.58;40.56;99273.97;6156292;23;20155;-88
2022/07/14 03:59:47;;;;;;;1.87;0.70;;;;;;;22.62;40.82;99278.00;6156260;23;20230;-88
2022/07/14 04:02:12;;;;;;;2.30;0.70;;;;;;;22.77;40.27;99275.69;6130480;23;20166;-87
2022/07/14 04:04:39;;;;;;;1.60;1.00;;;;;;;22.82;40.17;99270.72;6156614;23;20151;-87
2022/07/14 04:07:05;;;;;;;1.23;0.60;;;;;;;22.86;40.66;99277.41;6156210;23;20209;-87
2022/07/14 04:09:31;;;;;;;1.97;0.90;;;;;;;22.82;41.09;99276.91;6130197;23;20155;-87
2022/07/14 04:11:57;;;;;;;4.03;0.70;;;;;;;22.92;40.74;99283.00;6130342;23;20186;-87
2022/07/14 04:14:23;;;;;;;0.77;0.43;;;;;;;23.05;40.62;99287.94;6130414;23;20159;-87
2022/07/14 04:16:49;;;;;;;1.43;0.80;;;;;;;23.04;40.80;99279.06;6156153;23;20151;-87
2022/07/14 04:19:15;;;;;;;4.43;0.70;;;;;;;23.11;40.42;99287.31;6130048;23;20281;-88
2022/07/14 04:21:40;;;;;;;2.50;0.73;;;;;;;22.96;40.66;99278.16;6156136;23;20634;-87
2022/07/14 04:24:06;;;;;;;1.87;0.73;;;;;;;22.94;41.00;99280.16;6156398;23;20162;-88
2022/07/14 04:26:32;;;;;;;0.80;0.60;;;;;;;22.98;41.03;99284.22;6156391;23;20515;-89
2022/07/14 04:28:58;;;;;;;5.50;0.80;;;;;;;22.93;41.34;99284.66;6156312;23;20147;-88
2022/07/14 04:31:23;;;;;;;0.87;0.40;;;;;;;23.06;41.04;99289.63;6155911;23;20174;-89
2022/07/14 04:33:49;;;;;;;1.53;0.57;;;;;;;23.26;40.82;99296.44;6156320;23;20484;-87
2022/07/14 04:36:14;;;;;;;1.13;0.60;;;;;;;23.40;40.95;99297.75;6155963;23;20217;-88
2022/07/14 04:38:40;;;;;;;1.00;0.67;;;;;;;23.27;40.85;99298.09;6155942;23;20479;-88
2022/07/14 04:41:05;;;;;;;0.97;0.50;;;;;;;23.30;40.03;99300.47;6156260;23;20154;-87
2022/07/14 04:43:31;;;;;;;2.73;0.70;;;;;;;23.50;40.22;99296.63;6155853;23;20269;-88
2022/07/14 04:45:57;;;;;;;1.47;0.70;;;;;;;23.69;40.12;99304.41;6155938;23;20151;-88
2022/07/14 04:48:22;;;;;;;1.37;0.80;;;;;;;23.80;39.85;99298.78;6130201;23;20193;-88
2022/07/14 04:53:36;;;;;;;1.47;0.67;;;;;;;24.00;39.67;99306.59;6156588;23;20237;-89
2022/07/14 04:56:02;;;;;;;1.87;0.63;;;;;;;24.11;39.79;99306.31;6156170;23;20226;-87
2022/07/14 04:58:27;;;;;;;1.30;0.60;;;;;;;24.19;39.65;99311.69;6155808;23;20147;-88
2022/07/14 05:00:58;;;;;;;0.77;0.57;;;;;;;24.22;40.06;99317.56;6156482;23;20230;-89
2022/07/14 05:03:24;;;;;;;1.43;0.67;;;;;;;24.34;39.66;99318.94;6156188;23;20135;-89
2022/07/14 05:05:49;;;;;;;1.37;0.50;;;;;;;24.43;40.07;99312.59;6155793;23;20155;-88
2022/07/14 05:08:15;;;;;;;1.60;0.60;;;;;;;24.52;40.24;99313.47;6130055;23;20155;-87
2022/07/14 05:10:40;;;;;;;1.37;0.63;;;;;;;24.61;40.25;99309.78;6155694;23;20147;-88
2022/07/14 05:13:06;;;;;;;2.47;0.73;;;;;;;24.72;40.28;99309.47;6155709;23;20151;-88
2022/07/14 05:15:31;;;;;;;1.57;0.50;;;;;;;24.77;40.26;99317.00;6155727;23;20273;-88
2022/07/14 05:17:56;;;;;;;3.30;0.80;;;;;;;24.86;40.28;99313.38;6156025;23;20575;-88
2022/07/14 05:20:22;;;;;;;1.30;0.57;;;;;;;24.97;39.99;99310.38;6155734;23;20147;-88
2022/07/14 05:22:48;;;;;;;2.47;0.60;;;;;;;25.02;40.06;99313.38;6129888;23;20159;-89
2022/07/14 05:25:14;;;;;;;1.83;0.50;;;;;;;25.13;39.64;99307.66;6156021;23;20567;-88
2022/07/14 05:27:41;;;;;;;1.30;0.70;;;;;;;25.21;39.39;99310.34;6155642;23;20162;-89
2022/07/14 05:30:09;;;;;;;2.17;0.70;;;;;;;25.26;38.74;99313.34;6155984;23;20478;-88
2022/07/14 05:32:35;;;;;;;1.30;0.70;;;;;;;25.39;38.93;99312.84;6157491;23;20171;-89
2022/07/14 05:35:02;;;;;;;5.57;0.70;;;;;;;25.55;38.80;99312.84;6157610;23;20170;-88
2022/07/14 05:37:28;;;;;;;2.77;0.40;;;;;;;25.63;38.62;99310.13;6131855;23;20505;-89
2022/07/14 05:39:53;;;;;;;0.60;0.40;;;;;;;25.68;39.00;99306.94;6157892;23;20217;-88
2022/07/14 05:42:20;;;;;;;0.87;0.43;;;;;;;25.83;38.35;99306.06;6157789;23;20159;-88
2022/07/14 05:44:45;;;;;;;1.63;0.53;;;;;;;25.94;37.93;99313.72;6157619;23;20135;-89
2022/07/14 05:47:11;;;;;;;1.90;0.67;;;;;;;26.02;37.29;99310.19;6157477;23;20457;-87
2022/07/14 05:49:39;;;;;;;1.90;0.70;;;;;;;26.05;38.05;99309.81;6157505;23;20241;-89
2022/07/14 05:52:05;;;;;;;1.90;0.70;;;;;;;26.21;38.51;99310.59;6157744;23;20512;-89
2022/07/14 05:54:31;;;;;;;1.87;0.70;;;;;;;26.21;37.44;99313.28;6157465;23;20158;-88
2022/07/14 05:56:56;;;;;;;1.50;0.67;;;;;;;26.27;37.61;99317.13;6157453;23;20147;-88
2022/07/14 05:59:22;;;;;;;1.67;0.60;;;;;;;26.31;37.59;99310.38;6157427;23;20159;-88
2022/07/14 06:01:47;;;;;;;1.23;0.60;;;;;;;26.37;37.55;99314.22;6157359;23;20594;-89
2022/07/14 06:04:13;;;;;;;1.57;0.60;;;;;;;26.46;37.12;99307.78;6157713;23;20147;-88
2022/07/14 06:06:38;;;;;;;2.50;1.27;;;;;;;26.55;36.90;99306.72;6131634;23;20167;-88
2022/07/14 06:09:04;;;;;;;4.07;0.80;;;;;;;26.58;37.31;99306.34;6131576;23;20155;-89
2022/07/14 06:11:30;;;;;;;1.77;1.13;;;;;;;26.64;36.76;99308.34;6157505;23;20187;-88
2022/07/14 06:13:56;;;;;;;1.70;0.70;;;;;;;26.90;36.61;99313.41;6131467;23;20163;-88
2022/07/14 06:16:21;;;;;;;1.05;0.60;;;;;;;27.06;36.83;99306.03;6157232;23;20147;-89
2022/07/14 06:18:47;;;;;;;1.17;0.70;;;;;;;27.13;36.24;99315.06;6131552;23;20182;-89
2022/07/14 06:21:12;;;;;;;1.90;1.00;;;;;;;27.22;36.14;99305.91;6157531;23;20154;-88
2022/07/14 06:23:38;;;;;;;1.13;0.63;;;;;;;27.25;36.31;99304.69;6157197;23;20593;-88
2022/07/14 06:26:08;;;;;;;0.93;0.63;;;;;;;27.29;35.22;99308.69;6157193;23;20155;-88
2022/07/14 06:28:34;;;;;;;3.53;0.50;;;;;;;27.40;35.54;99314.50;6157430;23;20226;-88
2022/07/14 06:31:00;;;;;;;1.65;0.80;;;;;;;27.57;35.45;99311.66;6131168;23;20213;-89
2022/07/14 06:33:25;;;;;;;0.93;0.50;;;;;;;27.82;34.89;99313.88;6157098;23;20147;-88
2022/07/14 06:35:51;;;;;;;2.67;0.80;;;;;;;28.02;35.21;99315.00;6157056;23;20626;-89
2022/07/14 06:38:17;;;;;;;1.83;0.85;;;;;;;28.02;33.95;99309.63;6157027;23;20461;-89
2022/07/14 06:40:42;;;;;;;5.53;1.35;;;;;;;28.23;33.67;99311.53;6157024;23;20158;-89
2022/07/14 06:43:08;;;;;;;0.93;0.50;;;;;;;28.55;34.24;99313.78;6156879;23;20492;-88
2022/07/14 06:45:34;;;;;;;1.85;0.73;;;;;;;28.62;34.04;99306.63;6156968;23;20156;-89
2022/07/14 06:47:59;;;;;;;1.02;0.57;;;;;;;28.96;32.92;99318.56;6131190;23;20466;-89
2022/07/14 06:50:25;;;;;;;0.98;0.47;;;;;;;29.12;33.36;99315.63;6131556;23;20213;-88
2022/07/14 06:52:50;;;;;;;0.68;0.38;;;;;;;29.28;32.70;99315.38;6156852;23;20241;-88
2022/07/14 06:55:17;;;;;;;0.63;0.40;;;;;;;29.28;32.53;99311.84;6156928;23;20534;-89
2022/07/14 06:57:42;;;;;;;2.50;0.40;;;;;;;29.38;31.28;99315.88;6157579;23;20583;-88
2022/07/14 07:00:08;;;;;;;1.45;0.50;;;;;;;29.56;32.18;99321.59;6156867;23;20147;-89
2022/07/14 07:02:35;;;;;;;1.65;0.70;;;;;;;29.44;31.34;99315.09;6157124;23;20244;-89
2022/07/14 07:07:48;;;;;;;1.42;0.63;;;;;;;29.89;31.68;99321.00;6157567;23;20166;-89
2022/07/14 07:10:13;;;;;;;1.98;0.40;;;;;;;30.15;31.60;99315.75;6156753;23;20574;-89
2022/07/14 07:12:39;;;;;;;1.20;0.55;;;;;;;30.23;30.56;99313.72;6156982;23;20767;-88
2022/07/14 07:15:05;;;;;;;0.95;0.60;;;;;;;30.30;31.14;99314.56;6156673;23;20491;-89
2022/07/14 07:17:30;;;;;;;0.68;0.50;;;;;;;29.85;30.62;99317.06;6156656;23;20147;-89
2022/07/14 07:19:56;;;;;;;1.23;0.38;;;;;;;30.09;30.09;99313.84;6156949;23;20147;-88
2022/07/14 07:22:21;;;;;;;1.80;0.30;;;;;;;30.26;29.87;99309.75;6156944;23;20154;-90
2022/07/14 07:24:47;;;;;;;1.42;0.52;;;;;;;30.59;30.82;99297.19;6130911;23;20653;-89
2022/07/14 07:27:12;;;;;;;0.93;0.50;;;;;;;30.69;29.01;99294.91;6156520;23;20147;-89
2022/07/14 07:29:38;;;;;;;1.30;0.50;;;;;;;30.93;27.75;99296.25;6130914;23;20206;-89
2022/07/14 07:32:07;;;;;;;2.63;0.75;;;;;;;31.12;28.35;99281.03;6157131;23;20658;-90
2022/07/14 07:34:36;;;;;;;1.05;0.40;;;;;;;31.14;29.13;99284.38;6156899;23;20155;-90
2022/07/14 07:37:02;;;;;;;0.90;0.57;;;;;;;31.29;28.95;99285.00;6156492;23;20608;-89
2022/07/14 07:39:28;;;;;;;1.08;0.60;;;;;;;31.31;29.02;99281.06;6156809;23;20151;-89
2022/07/14 07:41:55;;;;;;;1.30;0.63;;;;;;;31.57;28.17;99283.75;6157154;23;20242;-89
2022/07/14 07:44:21;;;;;;;1.48;0.50;;;;;;;31.54;27.92;99269.78;6156293;23;20171;-88
2022/07/14 07:46:46;;;;;;;3.42;0.90;;;;;;;31.95;29.15;99274.88;6130653;23;20715;-89
2022/07/14 07:49:12;;;;;;;1.10;0.38;;;;;;;32.14;27.23;99272.13;6156389;23;20205;-89
2022/07/14 07:51:38;;;;;;;1.00;0.20;;;;;;;32.49;28.63;99266.31;6130526;23;20179;-88
2022/07/14 07:54:05;;;;;;;2.75;0.40;;;;;;;32.41;26.02;99266.56;6156350;23;20575;-88
2022/07/14 07:56:31;;;;;;;1.17;0.50;;;;;;;32.28;26.02;99269.34;6156275;23;20534;-89
2022/07/14 07:58:56;;;;;;;0.55;0.30;;;;;;;32.60;27.18;99266.47;6130589;23;20183;-89
2022/07/14 08:01:22;;;;;;;1.25;0.70;;;;;;;32.94;26.63;99267.88;6156235;23;20158;-88
2022/07/14 08:03:47;;;;;;;2.80;0.80;;;;;;;33.16;25.80;99263.78;6156282;23;20147;-88
2022/07/14 08:06:13;;;;;;;1.25;0.43;;;;;;;33.35;26.89;99267.38;6156580;23;20189;-88
2022/07/14 08:08:39;;;;;;;1.05;0.30;;;;;;;33.53;25.61;99267.41;6156190;23;20147;-88
2022/07/14 08:11:04;;;;;;;1.45;0.50;;;;;;;33.62;25.22;99271.50;6130410;23;20259;-88
2022/07/14 08:13:30;;;;;;;1.08;0.20;;;;;;;33.68;26.89;99265.16;6156130;23;20195;-88
2022/07/14 08:15:58;;;;;;;1.30;0.55;;;;;;;33.77;26.41;99268.44;6130360;23;20590;-87
2022/07/14 08:18:24;;;;;;;2.13;0.40;;;;;;;33.96;24.54;99267.38;6156116;23;20488;-90
2022/07/14 08:20:52;;;;;;;0.73;0.40;;;;;;;34.03;23.73;99268.13;6130375;23;20159;-88
2022/07/14 08:23:18;;;;;;;3.40;0.20;;;;;;;33.89;24.73;99253.84;6130315;23;20536;-88
2022/07/14 08:25:44;;;;;;;0.93;0.38;;;;;;;34.32;25.13;99255.63;6156047;23;20229;-88
2022/07/14 08:28:09;;;;;;;0.47;0.22;;;;;;;34.44;23.92;99256.50;6156348;23;20343;-89
2022/07/14 08:30:35;;;;;;;0.73;0.30;;;;;;;34.73;24.89;99247.50;6155895;23;20148;-89
2022/07/14 08:33:00;;;;;;;4.95;0.75;;;;;;;34.79;23.17;99254.75;6130283;23;20609;-88
2022/07/14 08:35:26;;;;;;;0.47;0.20;;;;;;;34.81;23.42;99254.50;6156319;23;20147;-89
2022/07/14 08:37:53;;;;;;;2.30;0.88;;;;;;;34.56;23.10;99263.69;6130178;23;20165;-89
2022/07/14 08:40:24;;;;;;;1.13;0.40;;;;;;;34.43;24.21;99252.97;6156626;23;20208;-89
2022/07/14 08:42:51;;;;;;;0.82;0.10;;;;;;;34.75;23.33;99244.56;6156071;23;20249;-89
2022/07/14 08:45:19;;;;;;;0.40;0.30;;;;;;;34.88;25.45;99244.34;6155862;23;20151;-88
2022/07/14 08:47:46;;;;;;;2.88;0.28;;;;;;;34.88;24.49;99236.97;6155925;23;20147;-89
2022/07/14 08:50:14;;;;;;;0.25;0.17;;;;;;;35.11;23.09;99236.25;6155830;23;20151;-90
2022/07/14 08:52:41;;;;;;;0.57;0.30;;;;;;;35.01;23.48;99236.78;6155803;23;20179;-89
2022/07/14 08:55:10;;;;;;;0.77;0.28;;;;;;;35.11;23.77;99234.34;6155864;23;20151;-88
2022/07/14 08:57:37;;;;;;;0.60;0.30;;;;;;;35.10;21.93;99227.22;6156513;23;20154;-90
2022/07/14 09:00:08;;;;;;;2.25;0.22;;;;;;;35.02;22.48;99227.53;6130044;23;20190;-89
2022/07/14 09:02:39;;;;;;;2.53;0.30;;;;;;;35.37;23.69;99215.84;6130076;23;20283;-90
2022/07/14 09:05:06;;;;;;;0.40;0.25;;;;;;;35.43;22.57;99223.88;6156041;23;20138;-90
2022/07/14 09:07:32;;;;;;;0.43;0.15;;;;;;;35.38;23.17;99206.59;6155704;23;20147;-88
2022/07/14 09:10:15;;;;;;;1.58;0.50;;;;;;;35.18;23.99;99215.97;6155820;23;20649;-89
2022/07/14 09:12:41;;;;;;;0.85;0.40;;;;;;;35.20;23.79;99215.72;6155687;23;20178;-88
2022/07/14 09:18:04;;;;;;;1.67;0.38;;;;;;;35.76;21.67;99210.47;6156166;23;20457;-89
2022/07/14 09:20:36;;;;;;;0.65;0.45;;;;;;;36.04;23.90;99214.31;6156024;23;20609;-88
2022/07/14 09:23:04;;;;;;;1.23;0.35;;;;;;;36.25;22.48;99198.09;6155724;23;20158;-89
2022/07/14 09:25:43;;;;;;;1.38;0.32;;;;;;;36.29;22.40;99198.44;6155692;23;20151;-90
2022/07/14 09:28:08;;;;;;;1.08;0.30;;;;;;;36.26;21.58;99201.66;6155749;23;20192;-90
2022/07/14 09:30:34;;;;;;;1.20;0.40;;;;;;;36.24;23.02;99199.16;6129939;23;20159;-88
2022/07/14 09:33:01;;;;;;;1.02;0.43;;;;;;;36.31;22.05;99196.28;6155676;23;20147;-90
2022/07/14 09:35:27;;;;;;;0.40;0.30;;;;;;;36.37;21.49;99190.66;6156028;23;20181;-89
2022/07/14 09:38:01;;;;;;;0.90;0.55;;;;;;;36.14;22.50;99192.72;6155894;23;20171;-93
2022/07/14 09:40:30;;;;;;;2.15;0.20;;;;;;;36.40;21.67;99186.63;6130225;23;20590;-91
2022/07/14 09:43:00;;;;;;;1.00;0.30;;;;;;;35.73;21.24;99183.69;6130007;23;20174;-91
2022/07/14 09:45:29;;;;;;;0.40;0.20;;;;;;;35.66;22.35;99177.53;6155871;23;20158;-92
2022/07/14 09:48:02;;;;;;;0.28;0.10;;;;;;;35.95;22.17;99175.66;6130319;23;20546;-92
2022/07/14 09:50:49;;;;;;;6.78;1.23;;;;;;;35.70;23.06;99184.16;6155803;23;20143;-90
2022/07/14 09:53:17;;;;;;;2.42;0.65;;;;;;;35.55;21.99;99183.00;6130194;23;20486;-91
2022/07/14 09:55:48;;;;;;;1.25;0.30;;;;;;;35.89;21.86;99182.09;6131265;23;20533;-91
2022/07/14 09:58:14;;;;;;;0.60;0.22;;;;;;;34.92;22.29;99188.31;6155642;23;20142;-91
2022/07/14 10:00:42;;;;;;;1.75;0.43;;;;;;;35.23;22.59;99188.00;6129946;23;20159;-91
2022/07/14 10:03:08;;;;;;;0.47;0.20;;;;;;;35.40;22.82;99179.94;6156260;23;20151;-91
2022/07/14 10:05:34;;;;;;;0.28;0.17;;;;;;;35.60;22.44;99164.03;6155704;23;20577;-91
2022/07/14 10:08:05;;;;;;;0.85;0.17;;;;;;;35.57;22.11;99176.25;6155809;23;20155;-91
2022/07/14 10:10:33;;;;;;;1.05;0.40;;;;;;;35.98;22.41;99168.91;6156012;23;20148;-93
2022/07/14 10:12:59;;;;;;;2.30;0.30;;;;;;;36.39;20.37;99163.13;6129975;23;20599;-90
2022/07/14 10:15:26;;;;;;;0.85;0.38;;;;;;;36.67;21.42;99160.38;6155632;23;20147;-91
2022/07/14 10:17:52;;;;;;;0.25;0.10;;;;;;;36.63;21.28;99155.66;6130464;23;20245;-93
2022/07/14 10:20:19;;;;;;;2.28;0.40;;;;;;;36.50;20.58;99145.88;6132825;23;20154;-91
2022/07/14 10:22:46;;;;;;;0.60;0.20;;;;;;;36.08;21.59;99152.75;6131554;23;20186;-88
2022/07/14 10:25:12;;;;;;;1.02;0.20;;;;;;;36.40;23.07;99162.03;6157151;23;20178;-88
2022/07/14 10:27:46;;;;;;;0.80;0.28;;;;;;;36.75;21.22;99154.47;6157995;23;20172;-93
2022/07/14 10:30:12;;;;;;;0.95;0.20;;;;;;;36.96;22.00;99155.66;6135594;23;20179;-93
2022/07/14 10:33:09;;;;;;;0.98;0.35;;;;;;;36.91;21.77;99158.28;6131819;23;20182;-94
2022/07/14 10:35:56;;;;;;;0.30;0.20;;;;;;;37.23;20.46;99155.78;6132647;23;20147;-92
2022/07/14 10:39:11;;;;;;;0.10;0.10;;;;;;;36.91;20.43;99152.81;6130673;23;20155;-92
2022/07/14 10:42:22;;;;;;;0.60;0.20;;;;;;;36.43;21.09;99149.81;5988026;23;20229;-93
2022/07/14 10:45:02;;;;;;;2.80;0.20;;;;;;;36.97;21.67;99156.50;6067405;23;20159;-95
2022/07/14 10:47:48;;;;;;;0.63;0.22;;;;;;;37.09;21.01;99138.91;6133294;23;20551;-93
2022/07/14 10:50:25;;;;;;;0.55;0.20;;;;;;;37.39;19.95;99142.06;6132332;23;20151;-94
2022/07/14 10:53:00;;;;;;;1.50;0.25;;;;;;;37.45;19.97;99138.34;6132738;23;20328;-93
2022/07/14 10:55:29;;;;;;;1.13;0.25;;;;;;;37.40;20.78;99132.81;6131763;23;20142;-92
2022/07/14 10:58:00;;;;;;;0.25;0.20;;;;;;;37.27;20.39;99129.56;6157566;23;20147;-93
2022/07/14 11:00:44;;;;;;;0.45;0.20;;;;;;;37.46;20.57;99133.69;6131687;23;20170;-94
2022/07/14 11:03:27;;;;;;;0.68;0.32;;;;;;;37.05;21.63;99121.38;6133248;23;20163;-93
2022/07/14 11:06:08;;;;;;;0.63;0.35;;;;;;;37.40;21.49;99124.59;6131763;23;20154;-94
2022/07/14 11:08:40;;;;;;;2.90;0.40;;;;;;;37.78;21.45;99120.97;6131765;23;20151;-91
2022/07/14 11:11:16;;;;;;;5.28;0.32;;;;;;;37.51;21.33;99131.03;6131394;23;20183;-93
2022/07/14 11:14:10;;;;;;;0.82;0.38;;;;;;;36.78;21.04;99128.56;6157524;23;20147;-94
2022/07/14 11:17:25;;;;;;;0.32;0.20;;;;;;;36.92;21.40;99122.50;6131120;23;20497;-94
2022/07/14 11:21:16;;;;;;;0.32;0.25;;;;;;;36.75;21.33;99115.41;6157456;23;20151;-95
2022/07/14 11:24:04;;;;;;;1.17;0.40;;;;;;;36.68;23.06;99118.31;6138888;23;20601;-94
2022/07/14 11:26:58;;;;;;;5.63;2.10;;;;;;;36.47;21.53;99115.47;6132556;23;20147;-93
2022/07/14 11:29:32;;;;;;;2.15;0.30;;;;;;;36.47;21.34;99116.31;6151489;23;20159;-94
2022/07/14 11:31:58;;;;;;;1.65;0.30;;;;;;;36.50;21.96;99115.00;6157620;23;20310;-94
2022/07/14 11:37:15;;;;;;;0.43;0.20;;;;;;;36.98;21.60;99108.97;6157342;23;20151;-92
2022/07/14 11:39:44;;;;;;;1.30;0.40;;;;;;;37.34;21.78;99102.88;6157309;23;20574;-92
2022/07/14 11:42:14;;;;;;;0.50;0.20;;;;;;;37.32;22.00;99107.75;6156715;23;20153;-91
2022/07/14 11:44:39;;;;;;;1.02;0.25;;;;;;;37.69;22.43;99092.38;6157037;23;20143;-92
2022/07/14 11:47:15;;;;;;;3.42;0.38;;;;;;;37.73;21.56;99088.06;6130835;23;20668;-90
2022/07/14 11:49:49;;;;;;;0.77;0.35;;;;;;;37.85;20.50;99096.94;6157302;23;20154;-90
2022/07/14 11:52:15;;;;;;;0.45;0.20;;;;;;;37.47;20.67;99097.06;6130979;23;20175;-91